createdAt,value
2023-01-17T00:02:02.195Z,0.80
2023-01-17T00:04:48.135Z,0.93
2023-01-17T00:07:36.223Z,0.60
2023-01-17T00:10:12.495Z,0.60
2023-01-17T00:12:39.884Z,1.40
2023-01-17T00:15:07.866Z,5.23
2023-01-17T00:17:35.201Z,1.27
2023-01-17T00:20:20.892Z,1.10
2023-01-17T00:23:06.802Z,1.77
2023-01-17T00:25:59.429Z,2.43
2023-01-17T00:28:27.484Z,4.53
2023-01-17T00:30:54.834Z,2.30
2023-01-17T00:33:23.479Z,2.17
2023-01-17T00:35:52.385Z,2.13
2023-01-17T00:38:28.508Z,3.00
2023-01-17T00:41:05.788Z,1.93
2023-01-17T00:43:51.915Z,2.97
2023-01-17T00:46:38.462Z,2.33
2023-01-17T00:49:24.593Z,1.90
2023-01-17T00:52:10.472Z,2.77
2023-01-17T00:54:56.161Z,3.47
2023-01-17T00:57:42.211Z,2.00
2023-01-17T01:00:28.988Z,0.93
2023-01-17T01:03:14.936Z,1.73
2023-01-17T01:06:01.196Z,2.00
2023-01-17T01:08:48.462Z,2.20
2023-01-17T01:11:37.314Z,1.27
2023-01-17T01:14:24.689Z,1.00
2023-01-17T01:17:10.827Z,1.43
2023-01-17T01:19:57.036Z,0.80
2023-01-17T01:22:43.101Z,1.37
2023-01-17T01:25:28.876Z,1.10
2023-01-17T01:28:24.906Z,0.90
2023-01-17T01:31:10.825Z,1.07
2023-01-17T01:33:38.351Z,1.33
2023-01-17T01:36:07.994Z,1.20
2023-01-17T01:38:35.625Z,1.13
2023-01-17T01:41:02.921Z,1.07
2023-01-17T01:43:45.375Z,2.27
2023-01-17T01:46:18.276Z,3.17
2023-01-17T01:48:58.145Z,1.23
2023-01-17T01:51:31.645Z,1.53
2023-01-17T01:54:06.926Z,1.00
2023-01-17T01:56:34.655Z,1.13
2023-01-17T01:59:04.667Z,3.03
2023-01-17T02:01:35.912Z,2.20
2023-01-17T02:04:04.306Z,2.33
2023-01-17T02:06:38.766Z,1.70
2023-01-17T02:09:09.018Z,8.07
2023-01-17T02:11:37.904Z,2.20
2023-01-17T02:14:05.699Z,1.73
2023-01-17T02:17:03.847Z,3.57
2023-01-17T02:19:58.734Z,1.03
2023-01-17T02:23:03.498Z,1.47
2023-01-17T02:26:00.476Z,3.00
2023-01-17T02:28:48.242Z,3.47
2023-01-17T02:31:26.472Z,2.00
2023-01-17T02:34:10.276Z,1.50
2023-01-17T02:36:45.136Z,2.80
2023-01-17T02:39:22.803Z,1.27
2023-01-17T02:41:58.046Z,4.87
2023-01-17T02:44:25.313Z,3.20
2023-01-17T02:46:55.475Z,2.47
2023-01-17T02:49:26.839Z,2.43
2023-01-17T02:52:21.852Z,7.50
2023-01-17T02:55:01.279Z,3.83
2023-01-17T02:58:13.232Z,2.87
2023-01-17T03:00:50.231Z,1.70
2023-01-17T03:03:47.833Z,4.60
2023-01-17T03:06:30.067Z,3.33
2023-01-17T03:08:57.270Z,5.80
2023-01-17T03:11:24.599Z,4.37
2023-01-17T03:13:56.858Z,3.70
2023-01-17T03:16:27.358Z,5.77
2023-01-17T03:18:55.107Z,5.67
2023-01-17T03:21:23.681Z,2.87
2023-01-17T03:23:51.321Z,6.90
2023-01-17T03:26:18.827Z,4.03
2023-01-17T03:28:46.136Z,4.73
2023-01-17T03:31:17.733Z,5.07
2023-01-17T03:33:44.897Z,5.77
2023-01-17T03:36:12.317Z,5.50
2023-01-17T03:38:39.690Z,4.43
2023-01-17T03:41:07.241Z,4.07
2023-01-17T03:43:34.520Z,3.30
2023-01-17T03:46:03.927Z,5.03
2023-01-17T03:48:31.926Z,8.30
2023-01-17T03:50:59.470Z,6.60
2023-01-17T03:53:26.797Z,9.83
2023-01-17T03:55:54.000Z,6.60
2023-01-17T03:58:21.243Z,3.97
2023-01-17T04:00:48.544Z,5.07
2023-01-17T04:03:15.832Z,4.37
2023-01-17T04:05:43.054Z,5.40
2023-01-17T04:08:10.275Z,10.90
2023-01-17T04:10:37.505Z,4.70
2023-01-17T04:13:04.703Z,7.37
2023-01-17T04:15:33.339Z,4.73
2023-01-17T04:18:01.209Z,5.37
2023-01-17T04:20:32.868Z,4.27
2023-01-17T04:23:00.274Z,4.07
2023-01-17T04:25:29.943Z,4.60
2023-01-17T04:27:58.610Z,6.47
2023-01-17T04:30:27.317Z,5.30
2023-01-17T04:32:55.323Z,5.47
2023-01-17T04:35:22.874Z,3.80
2023-01-17T04:37:50.649Z,8.87
2023-01-17T04:40:18.683Z,4.97
2023-01-17T04:42:46.085Z,6.73
2023-01-17T04:45:14.324Z,6.93
2023-01-17T04:47:41.559Z,4.47
2023-01-17T04:50:10.309Z,3.40
2023-01-17T04:52:37.536Z,6.50
2023-01-17T04:55:05.966Z,5.53
2023-01-17T04:57:33.217Z,6.77
2023-01-17T05:00:00.551Z,8.53
2023-01-17T05:02:27.777Z,4.03
2023-01-17T05:04:55.160Z,5.83
2023-01-17T05:07:22.470Z,5.23
2023-01-17T05:09:49.725Z,8.17
2023-01-17T05:12:16.905Z,5.23
2023-01-17T05:14:44.122Z,5.20
2023-01-17T05:17:11.555Z,6.43
2023-01-17T05:19:38.768Z,4.53
2023-01-17T05:22:14.795Z,3.40
2023-01-17T05:24:46.679Z,5.53
2023-01-17T05:27:14.845Z,5.10
2023-01-17T05:29:42.128Z,6.97
2023-01-17T05:32:09.389Z,7.70
2023-01-17T05:34:37.030Z,8.23
2023-01-17T05:37:04.297Z,4.70
2023-01-17T05:39:31.611Z,4.97
2023-01-17T05:41:59.550Z,6.33
2023-01-17T05:44:27.630Z,6.23
2023-01-17T05:46:56.145Z,4.57
2023-01-17T05:49:23.637Z,3.90
2023-01-17T05:51:53.463Z,5.73
2023-01-17T05:54:21.928Z,10.43
2023-01-17T05:56:49.070Z,7.07
2023-01-17T05:59:20.564Z,8.03
2023-01-17T06:01:54.278Z,4.47
2023-01-17T06:04:21.756Z,6.43
2023-01-17T06:06:49.041Z,8.67
2023-01-17T06:09:16.306Z,6.93
2023-01-17T06:11:43.584Z,6.60
2023-01-17T06:14:11.004Z,8.93
2023-01-17T06:16:38.175Z,6.63
2023-01-17T06:19:05.420Z,6.07
2023-01-17T06:21:32.618Z,6.80
2023-01-17T06:23:59.977Z,5.83
2023-01-17T06:26:27.180Z,8.37
2023-01-17T06:28:55.967Z,12.90
2023-01-17T06:31:23.246Z,6.97
2023-01-17T06:33:50.597Z,6.57
2023-01-17T06:36:17.770Z,6.67
2023-01-17T06:38:44.983Z,6.77
2023-01-17T06:41:12.162Z,7.33
2023-01-17T06:43:39.437Z,13.23
2023-01-17T06:46:06.674Z,7.57
2023-01-17T06:48:33.922Z,7.67
2023-01-17T06:51:01.141Z,9.83
2023-01-17T06:53:28.429Z,7.43
2023-01-17T06:55:57.575Z,9.03
2023-01-17T06:58:24.961Z,8.30
2023-01-17T07:00:52.346Z,5.90
2023-01-17T07:03:21.784Z,7.23
2023-01-17T07:05:49.695Z,7.77
2023-01-17T07:08:18.137Z,6.23
2023-01-17T07:10:46.700Z,8.70
2023-01-17T07:13:14.455Z,8.70
2023-01-17T07:15:41.763Z,10.27
2023-01-17T07:18:09.137Z,5.90
2023-01-17T07:20:37.983Z,7.93
2023-01-17T07:23:06.079Z,9.80
2023-01-17T07:25:33.397Z,8.47
2023-01-17T07:28:00.626Z,9.90
2023-01-17T07:30:27.914Z,6.73
2023-01-17T07:32:55.910Z,7.13
2023-01-17T07:35:26.685Z,8.03
2023-01-17T07:37:55.365Z,10.13
2023-01-17T07:40:23.640Z,7.47
2023-01-17T07:42:50.950Z,9.80
2023-01-17T07:45:18.930Z,7.93
2023-01-17T07:47:46.154Z,6.30
2023-01-17T07:50:13.767Z,8.97
2023-01-17T07:52:41.116Z,6.63
2023-01-17T07:55:09.378Z,8.03
2023-01-17T07:57:36.794Z,8.00
2023-01-17T08:00:05.143Z,8.53
2023-01-17T08:02:39.540Z,6.20
2023-01-17T08:05:07.087Z,6.63
2023-01-17T08:07:34.729Z,7.00
2023-01-17T08:10:01.958Z,7.53
2023-01-17T08:12:29.511Z,5.67
2023-01-17T08:14:57.880Z,8.57
2023-01-17T08:17:25.298Z,8.33
2023-01-17T08:19:53.142Z,6.13
2023-01-17T08:22:23.003Z,8.87
2023-01-17T08:24:50.234Z,8.83
2023-01-17T08:27:17.597Z,9.73
2023-01-17T08:29:48.235Z,8.47
2023-01-17T08:32:16.074Z,6.07
2023-01-17T08:34:43.381Z,7.80
2023-01-17T08:37:10.713Z,7.10
2023-01-17T08:39:37.977Z,6.93
2023-01-17T08:42:05.396Z,11.97
2023-01-17T08:44:32.727Z,8.10
2023-01-17T08:47:00.807Z,7.97
2023-01-17T08:49:30.643Z,9.77
2023-01-17T08:51:57.979Z,5.73
2023-01-17T08:54:25.320Z,7.63
2023-01-17T08:56:55.748Z,7.83
2023-01-17T08:59:23.487Z,8.37
2023-01-17T09:01:52.506Z,6.67
2023-01-17T09:04:20.006Z,6.87
2023-01-17T09:06:48.426Z,5.20
2023-01-17T09:09:17.700Z,12.07
2023-01-17T09:11:45.031Z,8.73
2023-01-17T09:14:13.423Z,9.20
2023-01-17T09:16:40.677Z,6.97
2023-01-17T09:19:09.021Z,8.77
2023-01-17T09:21:36.236Z,8.93
2023-01-17T09:24:03.764Z,9.40
2023-01-17T09:26:31.349Z,9.07
2023-01-17T09:28:58.801Z,8.17
2023-01-17T09:31:29.435Z,7.83
2023-01-17T09:33:57.861Z,7.37
2023-01-17T09:36:31.853Z,5.33
2023-01-17T09:38:59.486Z,5.87
2023-01-17T09:41:31.165Z,9.10
2023-01-17T09:44:13.124Z,12.87
2023-01-17T09:46:44.767Z,5.87
2023-01-17T09:49:34.558Z,6.90
2023-01-17T09:52:02.278Z,4.10
2023-01-17T09:54:35.747Z,6.53
2023-01-17T09:57:14.728Z,7.20
2023-01-17T10:00:02.086Z,5.63
2023-01-17T10:03:05.776Z,7.60
2023-01-17T10:05:37.646Z,5.23
2023-01-17T10:08:18.014Z,7.97
2023-01-17T10:10:58.429Z,7.20
2023-01-17T10:13:56.020Z,5.50
2023-01-17T10:16:26.122Z,9.77
2023-01-17T10:19:11.996Z,8.97
2023-01-17T10:22:10.245Z,7.07
2023-01-17T10:25:16.179Z,6.87
2023-01-17T10:27:56.569Z,6.27
2023-01-17T10:30:34.656Z,4.17
2023-01-17T10:33:38.203Z,13.80
2023-01-17T10:36:15.307Z,6.00
2023-01-17T10:38:47.008Z,5.20
2023-01-17T10:41:21.778Z,4.40
2023-01-17T10:44:03.358Z,5.77
2023-01-17T10:46:47.384Z,5.53
2023-01-17T10:49:19.952Z,8.10
2023-01-17T10:52:31.047Z,5.03
2023-01-17T10:55:39.046Z,7.30
2023-01-17T10:58:11.748Z,7.00
2023-01-17T11:01:03.135Z,5.17
2023-01-17T11:03:31.051Z,7.47
2023-01-17T11:06:15.031Z,6.37
2023-01-17T11:08:56.392Z,6.57
2023-01-17T11:11:26.022Z,8.20
2023-01-17T11:13:55.439Z,7.73
2023-01-17T11:16:28.681Z,11.43
2023-01-17T11:19:17.405Z,22.10
2023-01-17T11:21:58.583Z,9.47
2023-01-17T11:24:48.600Z,6.60
2023-01-17T11:27:27.726Z,9.67
2023-01-17T11:30:18.494Z,8.10
2023-01-17T11:32:53.912Z,4.23
2023-01-17T11:35:25.670Z,5.43
2023-01-17T11:38:02.097Z,5.57
2023-01-17T11:40:43.917Z,7.37
2023-01-17T11:43:25.629Z,7.90
2023-01-17T11:46:20.642Z,8.40
2023-01-17T11:48:53.484Z,5.27
2023-01-17T11:51:35.472Z,9.53
2023-01-17T11:54:08.910Z,10.50
2023-01-17T11:56:37.215Z,7.17
2023-01-17T11:59:19.214Z,5.43
2023-01-17T12:02:04.344Z,7.33
2023-01-17T12:04:40.007Z,12.40
2023-01-17T12:07:16.500Z,9.03
2023-01-17T12:09:46.552Z,8.40
2023-01-17T12:13:04.141Z,7.13
2023-01-17T12:15:53.214Z,14.33
2023-01-17T12:18:39.063Z,5.97
2023-01-17T12:21:20.605Z,6.07
2023-01-17T12:24:03.415Z,8.63
2023-01-17T12:26:41.882Z,7.90
2023-01-17T12:29:14.908Z,3.43
2023-01-17T12:32:04.054Z,5.83
2023-01-17T12:34:43.152Z,6.97
2023-01-17T12:37:18.058Z,8.47
2023-01-17T12:40:05.672Z,9.13
2023-01-17T12:42:40.988Z,7.30
2023-01-17T12:45:12.119Z,11.67
2023-01-17T12:47:49.947Z,10.60
2023-01-17T12:50:28.500Z,7.67
2023-01-17T12:53:32.180Z,4.87
2023-01-17T12:56:22.531Z,3.50
2023-01-17T12:58:55.508Z,4.20
2023-01-17T13:01:31.638Z,4.97
2023-01-17T13:04:05.009Z,5.97
2023-01-17T13:06:45.823Z,5.03
2023-01-17T13:09:17.308Z,7.30
2023-01-17T13:11:55.311Z,3.50
2023-01-17T13:14:23.448Z,5.70
2023-01-17T13:16:58.712Z,5.60
2023-01-17T13:19:43.770Z,3.70
2023-01-17T13:22:21.783Z,3.73
2023-01-17T13:25:16.191Z,2.17
2023-01-17T13:28:03.325Z,8.30
2023-01-17T13:30:45.915Z,1.93
2023-01-17T13:33:40.920Z,2.77
2023-01-17T13:36:20.626Z,2.43
2023-01-17T13:39:00.256Z,3.80
2023-01-17T13:41:52.823Z,5.07
2023-01-17T13:44:24.322Z,4.67
2023-01-17T13:47:04.244Z,5.73
2023-01-17T13:49:51.329Z,7.63
2023-01-17T13:52:22.981Z,4.63
2023-01-17T13:54:58.531Z,7.63
2023-01-17T13:57:43.474Z,6.30
2023-01-17T14:00:21.468Z,5.40
2023-01-17T14:02:50.563Z,4.97
2023-01-17T14:05:41.663Z,8.53
2023-01-17T14:08:20.589Z,3.70
2023-01-17T14:10:53.954Z,4.13
2023-01-17T14:13:38.646Z,11.67
2023-01-17T14:16:21.949Z,7.13
2023-01-17T14:18:49.745Z,5.43
2023-01-17T14:21:22.497Z,6.07
2023-01-17T14:24:00.472Z,4.17
2023-01-17T14:26:59.195Z,9.77
2023-01-17T14:29:53.700Z,3.47
2023-01-17T14:32:31.465Z,5.83
2023-01-17T14:34:58.985Z,2.07
2023-01-17T14:37:30.043Z,3.97
2023-01-17T14:39:57.540Z,8.00
2023-01-17T14:42:27.866Z,3.40
2023-01-17T14:45:08.094Z,5.10
2023-01-17T14:47:39.372Z,11.17
2023-01-17T14:50:24.517Z,4.17
2023-01-17T14:53:13.768Z,3.83
2023-01-17T14:55:47.208Z,5.60
2023-01-17T14:58:41.537Z,2.67
2023-01-17T15:01:13.850Z,3.07
2023-01-17T15:03:48.769Z,3.33
2023-01-17T15:06:40.304Z,4.13
2023-01-17T15:09:19.637Z,4.50
2023-01-17T15:11:48.519Z,4.67
2023-01-17T15:14:23.405Z,4.00
2023-01-17T15:16:52.122Z,3.30
2023-01-17T15:19:20.156Z,9.57
2023-01-17T15:21:52.827Z,3.37
2023-01-17T15:24:24.078Z,4.33
2023-01-17T15:26:51.790Z,5.67
2023-01-17T15:29:33.909Z,3.27
2023-01-17T15:32:06.460Z,4.83
2023-01-17T15:34:35.721Z,5.73
2023-01-17T15:37:07.911Z,5.13
2023-01-17T15:39:40.180Z,7.10
2023-01-17T15:42:19.513Z,4.53
2023-01-17T15:44:51.315Z,5.47
2023-01-17T15:47:34.039Z,4.90
2023-01-17T15:50:26.503Z,5.13
2023-01-17T15:53:00.950Z,7.53
2023-01-17T15:55:36.664Z,7.07
2023-01-17T15:58:05.706Z,4.50
2023-01-17T16:00:41.855Z,6.67
2023-01-17T16:03:29.991Z,9.30
2023-01-17T16:06:00.231Z,8.00
2023-01-17T16:08:38.641Z,9.43
2023-01-17T16:11:08.144Z,8.10
2023-01-17T16:13:42.313Z,8.97
2023-01-17T16:16:19.739Z,9.83
2023-01-17T16:18:48.234Z,10.43
2023-01-17T16:21:27.976Z,10.33
2023-01-17T16:23:56.369Z,14.10
2023-01-17T16:26:24.379Z,11.20
2023-01-17T16:28:51.998Z,11.33
2023-01-17T16:31:19.500Z,10.33
2023-01-17T16:33:49.407Z,11.20
2023-01-17T16:36:21.060Z,9.47
2023-01-17T16:38:50.275Z,13.93
2023-01-17T16:41:18.123Z,14.17
2023-01-17T16:43:45.499Z,9.53
2023-01-17T16:46:12.905Z,10.83
2023-01-17T16:48:40.216Z,7.27
2023-01-17T16:51:08.361Z,10.47
2023-01-17T16:53:36.704Z,8.07
2023-01-17T16:56:11.871Z,7.47
2023-01-17T16:58:39.931Z,10.60
2023-01-17T17:01:16.098Z,13.57
2023-01-17T17:03:44.822Z,18.00
2023-01-17T17:06:12.835Z,8.90
2023-01-17T17:08:40.184Z,11.97
2023-01-17T17:11:12.303Z,8.40
2023-01-17T17:13:41.091Z,13.80
2023-01-17T17:16:32.934Z,9.47
2023-01-17T17:19:03.240Z,10.93
2023-01-17T17:21:31.924Z,16.33
2023-01-17T17:24:01.113Z,21.67
2023-01-17T17:26:31.615Z,11.73
2023-01-17T17:28:58.976Z,7.80
2023-01-17T17:31:26.539Z,10.83
2023-01-17T17:34:03.730Z,18.23
2023-01-17T17:36:31.506Z,14.07
2023-01-17T17:38:59.872Z,14.83
2023-01-17T17:41:29.528Z,14.07
2023-01-17T17:43:57.528Z,18.00
2023-01-17T17:46:27.325Z,14.80
2023-01-17T17:48:59.265Z,16.83
2023-01-17T17:51:38.472Z,13.27
2023-01-17T17:54:13.801Z,10.77
2023-01-17T17:56:46.468Z,22.27
2023-01-17T17:59:20.353Z,13.90
2023-01-17T18:01:48.396Z,16.93
2023-01-17T18:04:16.232Z,12.90
2023-01-17T18:06:44.458Z,9.23
2023-01-17T18:09:13.088Z,13.80
2023-01-17T18:11:42.364Z,10.80
2023-01-17T18:14:13.550Z,17.17
2023-01-17T18:16:44.632Z,11.00
2023-01-17T18:19:20.098Z,13.90
2023-01-17T18:21:48.704Z,17.53
2023-01-17T18:24:18.398Z,13.00
2023-01-17T18:26:51.206Z,18.97
2023-01-17T18:29:20.829Z,17.90
2023-01-17T18:31:50.083Z,19.97
2023-01-17T18:34:21.224Z,14.00
2023-01-17T18:36:48.601Z,14.63
2023-01-17T18:39:20.566Z,15.70
2023-01-17T18:41:48.385Z,18.60
2023-01-17T18:44:16.344Z,15.87
2023-01-17T18:46:43.796Z,18.47
2023-01-17T18:49:12.629Z,13.03
2023-01-17T18:51:40.126Z,18.77
2023-01-17T18:54:08.722Z,16.00
2023-01-17T18:56:39.507Z,12.57
2023-01-17T18:59:07.735Z,17.97
2023-01-17T19:01:36.368Z,16.10
2023-01-17T19:04:05.782Z,20.07
2023-01-17T19:06:39.337Z,20.73
2023-01-17T19:09:08.533Z,23.33
2023-01-17T19:11:36.830Z,17.50
2023-01-17T19:14:05.824Z,23.43
2023-01-17T19:16:39.142Z,15.40
2023-01-17T19:19:10.161Z,18.00
2023-01-17T19:21:40.424Z,16.73
2023-01-17T19:24:08.042Z,17.40
2023-01-17T19:26:35.549Z,22.67
2023-01-17T19:29:05.237Z,24.67
2023-01-17T19:31:39.865Z,22.83
2023-01-17T19:34:07.808Z,22.87
2023-01-17T19:36:37.545Z,23.50
2023-01-17T19:39:07.568Z,19.70
2023-01-17T19:41:37.846Z,27.40
2023-01-17T19:44:07.380Z,22.47
2023-01-17T19:46:35.928Z,26.93
2023-01-17T19:49:07.037Z,22.73
2023-01-17T19:51:34.838Z,20.00
2023-01-17T19:54:04.054Z,20.00
2023-01-17T19:56:31.953Z,20.33
2023-01-17T19:59:01.859Z,22.50
2023-01-17T20:01:32.533Z,20.90
2023-01-17T20:04:01.038Z,20.93
2023-01-17T20:06:31.491Z,16.10
2023-01-17T20:08:58.916Z,22.00
2023-01-17T20:11:29.608Z,21.70
2023-01-17T20:13:58.669Z,15.50
2023-01-17T20:16:27.934Z,16.30
2023-01-17T20:18:55.734Z,18.23
2023-01-17T20:21:25.248Z,16.57
2023-01-17T20:23:54.555Z,15.87
2023-01-17T20:26:29.063Z,14.57
2023-01-17T20:28:57.020Z,17.87
2023-01-17T20:31:25.523Z,20.50
2023-01-17T20:33:54.981Z,18.97
2023-01-17T20:36:24.693Z,19.50
2023-01-17T20:38:53.149Z,17.40
2023-01-17T20:41:27.070Z,11.97
2023-01-17T20:43:56.743Z,13.93
2023-01-17T20:46:26.414Z,20.40
2023-01-17T20:48:55.959Z,14.00
2023-01-17T20:51:26.046Z,11.87
2023-01-17T20:53:56.416Z,14.37
2023-01-17T20:56:24.822Z,18.40
2023-01-17T20:58:54.066Z,12.10
2023-01-17T21:01:22.825Z,16.80
2023-01-17T21:03:53.029Z,19.50
2023-01-17T21:06:22.425Z,17.63
2023-01-17T21:08:50.393Z,18.70
2023-01-17T21:11:24.242Z,16.67
2023-01-17T21:13:52.238Z,18.57
2023-01-17T21:16:22.928Z,16.60
2023-01-17T21:18:51.413Z,18.80
2023-01-17T21:21:24.211Z,13.27
2023-01-17T21:23:53.908Z,16.63
2023-01-17T21:26:22.450Z,15.97
2023-01-17T21:28:50.860Z,14.17
2023-01-17T21:31:25.744Z,13.60
2023-01-17T21:33:56.063Z,14.73
2023-01-17T21:36:27.059Z,13.27
2023-01-17T21:38:57.174Z,18.40
2023-01-17T21:41:29.774Z,17.40
2023-01-17T21:43:59.913Z,17.47
2023-01-17T21:46:28.998Z,18.03
2023-01-17T21:48:57.657Z,16.27
2023-01-17T21:51:45.418Z,20.73
2023-01-17T21:54:12.864Z,24.37
2023-01-17T21:56:58.966Z,18.23
2023-01-17T21:59:26.250Z,24.00
2023-01-17T22:01:53.825Z,18.27
2023-01-17T22:04:21.245Z,20.83
2023-01-17T22:06:48.492Z,20.43
2023-01-17T22:09:15.929Z,18.23
2023-01-17T22:11:43.270Z,23.60
2023-01-17T22:14:10.926Z,21.37
2023-01-17T22:16:38.311Z,22.13
2023-01-17T22:19:05.773Z,26.67
2023-01-17T22:21:33.139Z,28.90
2023-01-17T22:24:00.704Z,30.97
2023-01-17T22:26:31.627Z,29.37
2023-01-17T22:29:02.588Z,25.10
2023-01-17T22:31:30.812Z,26.83
2023-01-17T22:34:00.928Z,25.07
2023-01-17T22:36:29.750Z,31.50
2023-01-17T22:38:57.295Z,31.00
2023-01-17T22:41:29.689Z,26.90
2023-01-17T22:43:59.763Z,28.10
2023-01-17T22:46:30.479Z,30.00
2023-01-17T22:48:58.117Z,19.43
2023-01-17T22:51:27.738Z,24.33
2023-01-17T22:53:58.416Z,22.57
2023-01-17T22:56:28.854Z,29.17
2023-01-17T22:58:57.240Z,29.73
2023-01-17T23:01:29.782Z,18.30
2023-01-17T23:04:02.575Z,23.90
2023-01-17T23:06:35.547Z,17.83
2023-01-17T23:09:10.445Z,19.70
2023-01-17T23:11:43.168Z,20.03
2023-01-17T23:14:23.828Z,20.70
2023-01-17T23:17:18.393Z,17.33
2023-01-17T23:19:54.325Z,18.70
2023-01-17T23:22:24.481Z,19.37
2023-01-17T23:24:57.293Z,20.37
2023-01-17T23:27:48.032Z,19.13
2023-01-17T23:30:16.969Z,21.30
2023-01-17T23:32:50.033Z,22.10
2023-01-17T23:35:19.003Z,19.73
2023-01-17T23:38:04.651Z,25.30
2023-01-17T23:40:33.530Z,22.53
2023-01-17T23:43:19.682Z,20.33
2023-01-17T23:45:47.377Z,20.53
2023-01-17T23:48:14.878Z,22.07
2023-01-17T23:50:46.910Z,21.77
2023-01-17T23:53:23.790Z,24.90
2023-01-17T23:55:56.438Z,23.93
2023-01-17T23:58:25.667Z,21.73
